createdAt,value
2022-09-15T00:00:51.263Z,99743.28
2022-09-15T00:03:20.365Z,99742.03
2022-09-15T00:05:48.635Z,99740.78
2022-09-15T00:08:17.591Z,99726.34
2022-09-15T00:10:49.171Z,99741.28
2022-09-15T00:13:17.368Z,99746.22
2022-09-15T00:15:45.125Z,99745.97
2022-09-15T00:18:13.013Z,99757.00
2022-09-15T00:20:42.694Z,99763.44
2022-09-15T00:23:11.049Z,99768.38
2022-09-15T00:25:45.594Z,99769.66
2022-09-15T00:28:13.913Z,99783.38
2022-09-15T00:30:43.159Z,99775.91
2022-09-15T00:33:11.005Z,99778.78
2022-09-15T00:35:39.884Z,99796.78
2022-09-15T00:38:08.719Z,99812.09
2022-09-15T00:40:46.427Z,99810.63
2022-09-15T00:43:15.543Z,99811.88
2022-09-15T00:45:43.278Z,99816.38
2022-09-15T00:48:14.519Z,99808.69
2022-09-15T00:50:45.870Z,99817.66
2022-09-15T00:53:15.164Z,99819.59
2022-09-15T00:55:47.442Z,99818.97
2022-09-15T00:58:31.123Z,99823.47
2022-09-15T01:01:01.387Z,99834.34
2022-09-15T01:03:31.483Z,99842.50
2022-09-15T01:06:03.105Z,99848.91
2022-09-15T01:08:35.214Z,99846.53
2022-09-15T01:11:03.022Z,99850.19
2022-09-15T01:13:31.990Z,99854.84
2022-09-15T01:16:11.032Z,99862.34
2022-09-15T01:18:48.002Z,99868.84
2022-09-15T01:21:29.835Z,99872.59
2022-09-15T01:24:41.202Z,99881.69
2022-09-15T01:27:42.874Z,99901.34
2022-09-15T01:30:15.439Z,99917.28
2022-09-15T01:33:06.175Z,99916.66
2022-09-15T01:35:53.738Z,99907.22
2022-09-15T01:38:33.396Z,99912.78
2022-09-15T01:41:06.133Z,99928.81
2022-09-15T01:43:40.267Z,99935.19
2022-09-15T01:46:10.855Z,99948.69
2022-09-15T01:48:40.606Z,99959.56
2022-09-15T01:51:09.334Z,99968.47
2022-09-15T01:53:37.158Z,99985.25
2022-09-15T01:56:08.203Z,99983.63
2022-09-15T01:58:37.671Z,99992.63
2022-09-15T02:01:08.502Z,99986.41
2022-09-15T02:03:47.325Z,100000.84
2022-09-15T02:06:22.106Z,100002.75
2022-09-15T02:08:57.361Z,100007.22
2022-09-15T02:11:28.184Z,100011.91
2022-09-15T02:14:03.576Z,100022.63
2022-09-15T02:16:34.945Z,100021.84
2022-09-15T02:19:21.522Z,100028.13
2022-09-15T02:21:55.895Z,100039.59
2022-09-15T02:24:27.912Z,100038.09
2022-09-15T02:26:56.203Z,100028.53
2022-09-15T02:29:27.823Z,100034.06
2022-09-15T02:32:03.744Z,100057.09
2022-09-15T02:34:38.308Z,100045.72
2022-09-15T02:37:06.764Z,100058.41
2022-09-15T02:39:37.872Z,100055.84
2022-09-15T02:42:05.883Z,100054.13
2022-09-15T02:44:33.653Z,100062.91
2022-09-15T02:47:02.616Z,100075.31
2022-09-15T02:49:30.191Z,100068.25
2022-09-15T02:51:59.170Z,100083.44
2022-09-15T02:54:26.784Z,100063.28
2022-09-15T02:56:54.373Z,100081.03
2022-09-15T02:59:22.270Z,100079.50
2022-09-15T03:01:49.974Z,100092.66
2022-09-15T03:04:17.586Z,100088.38
2022-09-15T03:06:45.335Z,100097.25
2022-09-15T03:09:14.886Z,100093.81
2022-09-15T03:11:42.536Z,100099.25
2022-09-15T03:14:10.495Z,100104.69
2022-09-15T03:16:38.196Z,100120.72
2022-09-15T03:19:06.238Z,100099.72
2022-09-15T03:21:33.873Z,100109.63
2022-09-15T03:24:01.581Z,100116.91
2022-09-15T03:26:31.050Z,100137.09
2022-09-15T03:28:58.718Z,100143.41
2022-09-15T03:31:26.349Z,100158.47
2022-09-15T03:33:56.048Z,100145.22
2022-09-15T03:36:23.779Z,100155.72
2022-09-15T03:38:51.481Z,100141.59
2022-09-15T03:41:19.225Z,100141.59
2022-09-15T03:43:48.155Z,100145.03
2022-09-15T03:46:15.841Z,100112.41
2022-09-15T03:48:43.430Z,100117.84
2022-09-15T03:51:12.500Z,100116.91
2022-09-15T03:53:41.976Z,100147.91
2022-09-15T03:56:11.751Z,100148.00
2022-09-15T03:58:39.354Z,100154.31
2022-09-15T04:01:09.177Z,100148.00
2022-09-15T04:03:43.217Z,100154.19
2022-09-15T04:06:13.148Z,100170.91
2022-09-15T04:08:40.871Z,100165.47
2022-09-15T04:11:10.747Z,100165.56
2022-09-15T04:13:39.858Z,100144.47
2022-09-15T04:16:11.238Z,100164.72
2022-09-15T04:18:39.105Z,100182.16
2022-09-15T04:21:09.694Z,100186.19
2022-09-15T04:23:37.253Z,100172.94
2022-09-15T04:26:07.663Z,100151.84
2022-09-15T04:28:38.043Z,100138.28
2022-09-15T04:31:08.673Z,100108.50
2022-09-15T04:33:37.031Z,100118.25
2022-09-15T04:36:08.015Z,100126.06
2022-09-15T04:38:36.371Z,100108.31
2022-09-15T04:41:05.123Z,100117.00
2022-09-15T04:43:33.230Z,100100.19
2022-09-15T04:46:00.860Z,100104.50
2022-09-15T04:48:29.890Z,100108.59
2022-09-15T04:51:01.998Z,100108.53
2022-09-15T04:53:29.933Z,100107.19
2022-09-15T04:56:04.073Z,100094.50
2022-09-15T04:58:31.776Z,100087.06
2022-09-15T05:00:59.366Z,100080.44
2022-09-15T05:03:26.998Z,100062.50
2022-09-15T05:05:55.880Z,100055.94
2022-09-15T05:08:23.548Z,100058.09
2022-09-15T05:10:51.177Z,100023.16
2022-09-15T05:13:18.877Z,99979.72
2022-09-15T05:15:46.778Z,99961.75
2022-09-15T05:18:14.393Z,99946.34
2022-09-15T05:20:42.113Z,99953.03
2022-09-15T05:23:11.665Z,99930.44
2022-09-15T05:25:39.245Z,99880.84
2022-09-15T05:28:07.683Z,99889.19
2022-09-15T05:30:39.684Z,99853.13
2022-09-15T05:33:09.078Z,99844.34
2022-09-15T05:35:36.719Z,99838.91
2022-09-15T05:38:04.357Z,99824.88
2022-09-15T05:40:33.908Z,99822.94
2022-09-15T05:43:01.933Z,99833.00
2022-09-15T05:45:29.473Z,99855.13
2022-09-15T05:47:57.101Z,99873.03
2022-09-15T05:50:24.918Z,99849.47
2022-09-15T05:52:52.903Z,99863.53
2022-09-15T05:55:20.529Z,99812.03
2022-09-15T05:57:49.557Z,99803.78
2022-09-15T06:00:18.969Z,99747.72
2022-09-15T06:02:46.954Z,99745.72
2022-09-15T06:05:14.665Z,99716.97
2022-09-15T06:07:42.165Z,99711.13
2022-09-15T06:10:10.987Z,99708.72
2022-09-15T06:12:38.816Z,99652.75
2022-09-15T06:15:08.844Z,99693.56
2022-09-15T06:17:36.374Z,99680.78
2022-09-15T06:20:06.741Z,99674.41
2022-09-15T06:22:35.059Z,99703.44
2022-09-15T06:25:02.764Z,99701.13
2022-09-15T06:27:30.276Z,99735.91
2022-09-15T06:29:57.912Z,99711.03
2022-09-15T06:32:27.102Z,99720.16
2022-09-15T06:34:54.779Z,99749.31
2022-09-15T06:37:22.295Z,99751.25
2022-09-15T06:39:49.995Z,99772.47
2022-09-15T06:42:17.862Z,99782.00
2022-09-15T06:44:45.480Z,99843.75
2022-09-15T06:47:16.004Z,99839.16
2022-09-15T06:49:44.966Z,99818.91
2022-09-15T06:52:12.768Z,99824.41
2022-09-15T06:54:40.370Z,99802.09
2022-09-15T06:57:08.067Z,99772.94
2022-09-15T06:59:35.749Z,99781.72
2022-09-15T07:02:05.287Z,99767.94
2022-09-15T07:04:36.842Z,99785.41
2022-09-15T07:07:06.474Z,99791.34
2022-09-15T07:09:34.080Z,99808.47
2022-09-15T07:12:02.026Z,99789.19
2022-09-15T07:14:30.217Z,99768.06
2022-09-15T07:16:57.889Z,99763.78
2022-09-15T07:19:25.432Z,99772.56
2022-09-15T07:21:53.853Z,99793.56
2022-09-15T07:24:22.876Z,99806.88
2022-09-15T07:26:50.558Z,99788.56
2022-09-15T07:29:18.439Z,99817.13
2022-09-15T07:31:46.100Z,99789.31
2022-09-15T07:34:13.776Z,99807.47
2022-09-15T07:36:41.326Z,99794.56
2022-09-15T07:39:08.867Z,99791.38
2022-09-15T07:41:37.829Z,99817.88
2022-09-15T07:44:08.035Z,99773.84
2022-09-15T07:46:35.577Z,99789.94
2022-09-15T07:49:03.843Z,99819.25
2022-09-15T07:51:31.554Z,99839.38
2022-09-15T07:53:59.118Z,99816.28
2022-09-15T07:56:26.793Z,99800.53
2022-09-15T07:58:55.798Z,99796.72
2022-09-15T08:01:23.479Z,99813.56
2022-09-15T08:03:54.584Z,99822.31
2022-09-15T08:06:24.397Z,99774.06
2022-09-15T08:08:57.713Z,99808.56
2022-09-15T08:11:27.523Z,99765.13
2022-09-15T08:13:56.515Z,99740.09
2022-09-15T08:16:25.457Z,99732.84
2022-09-15T08:18:55.941Z,99768.88
2022-09-15T08:21:23.835Z,99756.94
2022-09-15T08:23:52.489Z,99766.28
2022-09-15T08:26:20.311Z,99736.25
2022-09-15T08:28:48.226Z,99709.66
2022-09-15T08:31:18.019Z,99723.19
2022-09-15T08:33:48.935Z,99698.38
2022-09-15T08:36:16.550Z,99674.56
2022-09-15T08:38:45.975Z,99687.25
2022-09-15T08:41:18.285Z,99676.38
2022-09-15T08:43:50.819Z,99719.38
2022-09-15T08:46:25.300Z,99687.94
2022-09-15T08:49:02.905Z,99613.44
2022-09-15T08:51:36.956Z,99633.88
2022-09-15T08:54:12.049Z,99653.50
2022-09-15T08:56:42.477Z,99626.09
2022-09-15T08:59:14.165Z,99656.47
2022-09-15T09:02:06.947Z,99566.63
2022-09-15T09:05:03.729Z,99577.38
2022-09-15T09:07:49.197Z,99570.00
2022-09-15T09:10:20.972Z,99544.63
2022-09-15T09:13:04.505Z,99515.78
2022-09-15T09:15:48.556Z,99477.53
2022-09-15T09:18:49.344Z,99469.31
2022-09-15T09:21:24.512Z,99472.31
2022-09-15T09:23:59.562Z,99484.13
2022-09-15T09:26:30.769Z,99498.91
2022-09-15T09:29:00.870Z,99470.97
2022-09-15T09:31:29.623Z,99351.06
2022-09-15T09:34:07.903Z,99332.91
2022-09-15T09:36:35.476Z,99386.06
2022-09-15T09:39:03.766Z,99325.81
2022-09-15T09:41:36.518Z,99286.34
2022-09-15T09:44:07.649Z,99230.78
2022-09-15T09:46:35.257Z,99222.94
2022-09-15T09:49:12.096Z,99233.72
2022-09-15T09:51:50.937Z,99225.41
2022-09-15T09:54:20.678Z,99267.00
2022-09-15T09:56:49.616Z,99205.91
2022-09-15T09:59:41.573Z,99209.75
2022-09-15T10:02:17.943Z,99198.75
2022-09-15T10:04:49.111Z,99235.66
2022-09-15T10:07:20.071Z,99208.81
2022-09-15T10:09:54.188Z,99145.34
2022-09-15T10:12:26.147Z,99267.81
2022-09-15T10:14:56.691Z,99175.44
2022-09-15T10:17:27.122Z,99194.47
2022-09-15T10:19:58.177Z,99088.72
2022-09-15T10:22:31.159Z,99148.41
2022-09-15T10:25:00.705Z,99135.41
2022-09-15T10:27:32.001Z,99177.84
2022-09-15T10:30:18.424Z,98991.69
2022-09-15T10:32:46.071Z,99043.94
2022-09-15T10:35:18.599Z,98975.50
2022-09-15T10:38:04.356Z,98945.41
2022-09-15T10:40:43.994Z,98925.84
2022-09-15T10:43:25.246Z,98846.13
2022-09-15T10:46:02.720Z,98724.66
2022-09-15T10:48:44.233Z,98793.97
2022-09-15T10:51:37.981Z,98885.25
2022-09-15T10:54:19.427Z,98970.69
2022-09-15T10:56:50.006Z,99043.66
2022-09-15T10:59:43.150Z,98997.75
2022-09-15T11:02:56.451Z,98980.91
2022-09-15T11:05:33.183Z,98935.28
2022-09-15T11:08:22.837Z,98929.06
2022-09-15T11:10:59.666Z,98921.44
2022-09-15T11:13:39.595Z,98933.94
2022-09-15T11:16:14.541Z,98897.13
2022-09-15T11:18:59.965Z,98895.38
2022-09-15T11:21:33.634Z,98891.31
2022-09-15T11:24:24.067Z,98924.81
2022-09-15T11:26:55.544Z,99014.84
2022-09-15T11:29:27.998Z,99086.25
2022-09-15T11:34:34.731Z,99262.31
2022-09-15T11:37:09.147Z,99364.56
2022-09-15T11:39:42.617Z,99364.13
2022-09-15T11:42:16.143Z,99434.31
2022-09-15T11:44:47.096Z,99428.03
2022-09-15T11:47:23.331Z,99379.00
2022-09-15T11:49:57.099Z,99392.47
2022-09-15T11:52:44.043Z,99410.19
2022-09-15T11:55:23.996Z,99338.84
2022-09-15T11:57:58.015Z,99414.16
2022-09-15T12:00:26.062Z,99375.13
2022-09-15T12:03:01.247Z,99271.34
2022-09-15T12:05:34.311Z,99174.59
2022-09-15T12:08:07.753Z,99155.47
2022-09-15T12:10:41.349Z,98998.19
2022-09-15T12:13:16.312Z,98950.78
2022-09-15T12:15:45.240Z,98830.97
2022-09-15T12:18:37.790Z,98821.84
2022-09-15T12:21:15.769Z,98826.06
2022-09-15T12:23:48.719Z,98852.91
2022-09-15T12:26:20.174Z,98799.72
2022-09-15T12:29:02.003Z,98791.63
2022-09-15T12:31:40.068Z,98814.75
2022-09-15T12:34:36.407Z,98892.94
2022-09-15T12:37:14.614Z,98886.19
2022-09-15T12:39:43.187Z,98863.69
2022-09-15T12:42:20.351Z,98869.63
2022-09-15T12:44:52.910Z,98840.41
2022-09-15T12:47:29.406Z,98885.13
2022-09-15T12:50:03.247Z,98898.78
2022-09-15T12:52:31.217Z,98927.41
2022-09-15T12:55:03.467Z,98943.22
2022-09-15T12:57:36.085Z,98904.94
2022-09-15T13:00:33.561Z,98902.75
2022-09-15T13:03:04.869Z,98911.13
2022-09-15T13:06:10.347Z,98939.66
2022-09-15T13:08:53.073Z,98932.38
2022-09-15T13:11:25.862Z,98961.56
2022-09-15T13:14:07.728Z,98984.72
2022-09-15T13:16:46.108Z,98969.94
2022-09-15T13:19:17.618Z,98884.31
2022-09-15T13:21:54.522Z,98792.09
2022-09-15T13:24:38.839Z,98784.84
2022-09-15T13:27:08.246Z,98764.06
2022-09-15T13:29:46.614Z,98772.28
2022-09-15T13:32:24.255Z,98770.56
2022-09-15T13:35:29.283Z,98656.75
2022-09-15T13:38:44.330Z,98638.56
2022-09-15T13:41:33.330Z,98635.00
2022-09-15T13:44:23.299Z,98545.16
2022-09-15T13:47:10.748Z,98559.03
2022-09-15T13:49:49.779Z,98559.91
2022-09-15T13:52:34.082Z,98565.03
2022-09-15T13:55:19.440Z,98581.25
2022-09-15T14:00:46.778Z,98481.69
2022-09-15T14:03:20.071Z,98469.78
2022-09-15T14:05:48.016Z,98451.69
2022-09-15T14:08:19.598Z,98483.97
2022-09-15T14:10:51.433Z,98496.28
2022-09-15T14:13:22.430Z,98534.59
2022-09-15T14:16:01.490Z,98562.31
2022-09-15T14:18:31.339Z,98509.00
2022-09-15T14:21:01.669Z,98539.38
2022-09-15T14:23:30.213Z,98542.94
2022-09-15T14:26:00.151Z,98582.41
2022-09-15T14:28:35.606Z,98563.03
2022-09-15T14:31:03.496Z,98574.84
2022-09-15T14:33:37.927Z,98586.97
2022-09-15T14:36:14.448Z,98600.50
2022-09-15T14:38:42.157Z,98605.91
2022-09-15T14:41:19.944Z,98619.78
2022-09-15T14:43:47.597Z,98737.75
2022-09-15T14:46:19.023Z,98856.56
2022-09-15T14:48:48.247Z,98955.84
2022-09-15T14:51:22.406Z,99066.56
2022-09-15T14:53:52.162Z,99096.56
2022-09-15T14:56:22.749Z,99097.34
2022-09-15T14:58:53.761Z,99161.72
2022-09-15T15:01:24.433Z,99189.72
2022-09-15T15:04:02.570Z,99210.13
2022-09-15T15:06:38.618Z,99170.09
2022-09-15T15:09:11.213Z,99188.50
2022-09-15T15:11:44.045Z,99205.47
2022-09-15T15:14:14.369Z,99197.13
2022-09-15T15:16:55.486Z,99221.91
2022-09-15T15:19:39.460Z,99244.72
2022-09-15T15:22:16.516Z,99230.56
2022-09-15T15:24:47.663Z,99245.53
2022-09-15T15:27:40.681Z,99226.41
2022-09-15T15:30:33.775Z,99202.47
2022-09-15T15:33:02.899Z,99167.06
2022-09-15T15:35:33.586Z,99182.38
2022-09-15T15:38:04.593Z,99191.13
2022-09-15T15:40:37.970Z,99201.56
2022-09-15T15:43:08.337Z,99173.81
2022-09-15T15:45:48.397Z,99175.28
2022-09-15T15:48:18.398Z,99148.97
2022-09-15T15:50:47.830Z,99153.06
2022-09-15T15:53:15.458Z,99131.13
2022-09-15T15:55:44.557Z,99120.94
2022-09-15T15:58:13.499Z,99113.06
2022-09-15T16:00:45.154Z,99103.03
2022-09-15T16:03:19.285Z,99096.13
2022-09-15T16:05:51.249Z,99099.09
2022-09-15T16:08:25.541Z,99095.00
2022-09-15T16:10:56.248Z,99096.97
2022-09-15T16:13:27.654Z,99085.22
2022-09-15T16:15:56.978Z,99088.44
2022-09-15T16:18:29.271Z,99088.44
2022-09-15T16:20:58.360Z,99075.72
2022-09-15T16:23:26.312Z,99074.03
2022-09-15T16:25:56.626Z,99090.56
2022-09-15T16:28:24.665Z,99062.13
2022-09-15T16:30:52.351Z,99071.75
2022-09-15T16:33:20.956Z,99049.38
2022-09-15T16:35:51.315Z,99060.16
2022-09-15T16:38:21.227Z,99052.34
2022-09-15T16:40:49.499Z,99038.91
2022-09-15T16:43:19.268Z,99053.22
2022-09-15T16:45:46.918Z,99050.97
2022-09-15T16:48:14.887Z,99060.31
2022-09-15T16:50:56.012Z,99049.84
2022-09-15T16:53:32.662Z,99062.44
2022-09-15T16:56:00.495Z,99086.09
2022-09-15T16:58:28.637Z,99080.03
2022-09-15T17:00:56.723Z,99064.47
2022-09-15T17:03:25.986Z,99104.66
2022-09-15T17:05:54.981Z,99100.38
2022-09-15T17:08:27.057Z,99086.25
2022-09-15T17:10:57.662Z,99087.38
2022-09-15T17:13:30.118Z,99067.88
2022-09-15T17:15:58.881Z,99065.34
2022-09-15T17:18:26.938Z,99041.00
2022-09-15T17:20:54.836Z,99031.81
2022-09-15T17:23:24.392Z,99026.56
2022-09-15T17:25:53.303Z,99027.00
2022-09-15T17:28:25.536Z,99020.63
2022-09-15T17:30:58.262Z,99026.59
2022-09-15T17:33:26.923Z,99031.09
2022-09-15T17:35:54.899Z,99067.34
2022-09-15T17:38:22.901Z,99078.50
2022-09-15T17:40:51.689Z,99113.16
2022-09-15T17:43:20.969Z,99114.56
2022-09-15T17:45:51.759Z,99131.69
2022-09-15T17:48:19.731Z,99123.03
2022-09-15T17:50:48.878Z,99136.31
2022-09-15T17:53:18.850Z,99147.03
2022-09-15T17:55:46.461Z,99158.84
2022-09-15T17:58:14.362Z,99161.22
2022-09-15T18:00:48.036Z,99181.97
2022-09-15T18:03:22.901Z,99208.28
2022-09-15T18:05:51.470Z,99231.56
2022-09-15T18:08:19.276Z,99269.31
2022-09-15T18:10:47.414Z,99280.09
2022-09-15T18:13:17.516Z,99301.50
2022-09-15T18:15:48.968Z,99316.28
2022-09-15T18:18:22.736Z,99339.69
2022-09-15T18:20:51.522Z,99359.84
2022-09-15T18:23:20.923Z,99382.25
2022-09-15T18:25:49.129Z,99408.06
2022-09-15T18:28:17.620Z,99438.97
2022-09-15T18:30:47.508Z,99458.34
2022-09-15T18:33:16.939Z,99494.97
2022-09-15T18:35:46.412Z,99512.97
2022-09-15T18:38:17.033Z,99533.56
2022-09-15T18:40:46.670Z,99557.31
2022-09-15T18:43:14.325Z,99571.94
2022-09-15T18:45:42.586Z,99583.13
2022-09-15T18:48:12.852Z,99591.66
2022-09-15T18:50:41.573Z,99613.47
2022-09-15T18:53:11.478Z,99615.22
2022-09-15T18:55:41.750Z,99621.91
2022-09-15T18:58:09.707Z,99611.72
2022-09-15T19:00:37.789Z,99600.13
2022-09-15T19:03:09.467Z,99608.03
2022-09-15T19:05:37.615Z,99610.63
2022-09-15T19:08:05.513Z,99632.66
2022-09-15T19:10:34.718Z,99627.19
2022-09-15T19:13:02.363Z,99626.84
2022-09-15T19:15:33.710Z,99613.06
2022-09-15T19:18:02.008Z,99625.25
2022-09-15T19:20:30.016Z,99625.72
2022-09-15T19:22:58.151Z,99642.88
2022-09-15T19:25:25.882Z,99649.09
2022-09-15T19:27:55.003Z,99631.03
2022-09-15T19:30:22.587Z,99658.91
2022-09-15T19:32:50.189Z,99663.78
2022-09-15T19:35:17.953Z,99668.84
2022-09-15T19:37:45.952Z,99679.81
2022-09-15T19:40:15.833Z,99694.53
2022-09-15T19:42:45.256Z,99697.38
2022-09-15T19:45:14.812Z,99692.97
2022-09-15T19:47:42.899Z,99694.16
2022-09-15T19:50:12.741Z,99701.44
2022-09-15T19:52:40.590Z,99697.81
2022-09-15T19:55:09.649Z,99687.94
2022-09-15T19:57:39.879Z,99687.00
2022-09-15T20:00:09.438Z,99666.63
2022-09-15T20:02:39.128Z,99647.38
2022-09-15T20:05:07.894Z,99618.25
2022-09-15T20:07:35.671Z,99599.88
2022-09-15T20:10:03.382Z,99590.47
2022-09-15T20:12:34.611Z,99569.53
2022-09-15T20:15:02.156Z,99559.91
2022-09-15T20:17:29.753Z,99558.28
2022-09-15T20:19:59.409Z,99534.53
2022-09-15T20:22:27.505Z,99521.41
2022-09-15T20:24:56.094Z,99512.00
2022-09-15T20:27:23.831Z,99498.13
2022-09-15T20:29:51.597Z,99510.41
2022-09-15T20:32:22.751Z,99495.63
2022-09-15T20:34:52.967Z,99485.41
2022-09-15T20:37:23.015Z,99468.38
2022-09-15T20:39:51.831Z,99469.09
2022-09-15T20:42:19.674Z,99468.38
2022-09-15T20:44:47.207Z,99480.78
2022-09-15T20:47:14.797Z,99494.19
2022-09-15T20:49:42.530Z,99491.50
2022-09-15T20:52:10.178Z,99488.09
2022-09-15T20:54:39.089Z,99487.34
2022-09-15T20:57:06.726Z,99493.91
2022-09-15T20:59:34.321Z,99518.84
2022-09-15T21:02:04.215Z,99529.53
2022-09-15T21:04:32.643Z,99537.69
2022-09-15T21:07:00.871Z,99547.28
2022-09-15T21:09:28.498Z,99567.94
2022-09-15T21:11:57.550Z,99583.00
2022-09-15T21:14:25.118Z,99602.50
2022-09-15T21:16:52.824Z,99619.53
2022-09-15T21:19:20.525Z,99639.56
2022-09-15T21:21:48.162Z,99653.69
2022-09-15T21:24:15.844Z,99674.88
2022-09-15T21:26:57.543Z,99699.91
2022-09-15T21:29:27.571Z,99717.69
2022-09-15T21:31:56.224Z,99738.13
2022-09-15T21:34:25.199Z,99753.44
2022-09-15T21:36:53.718Z,99770.00
2022-09-15T21:39:21.321Z,99790.47
2022-09-15T21:41:49.200Z,99792.19
2022-09-15T21:44:17.177Z,99790.69
2022-09-15T21:46:46.938Z,99791.88
2022-09-15T21:49:14.891Z,99794.00
2022-09-15T21:51:42.501Z,99804.41
2022-09-15T21:54:10.320Z,99809.19
2022-09-15T21:56:38.092Z,99812.31
2022-09-15T21:59:05.941Z,99820.44
2022-09-15T22:01:34.333Z,99833.28
2022-09-15T22:04:05.883Z,99835.28
2022-09-15T22:06:34.978Z,99826.06
2022-09-15T22:09:05.109Z,99837.91
2022-09-15T22:11:33.691Z,99848.63
2022-09-15T22:14:02.892Z,99840.28
2022-09-15T22:16:31.022Z,99852.97
2022-09-15T22:18:58.906Z,99844.50
2022-09-15T22:21:29.269Z,99866.97
2022-09-15T22:23:58.972Z,99867.38
2022-09-15T22:26:28.763Z,99883.63
2022-09-15T22:28:56.906Z,99876.66
2022-09-15T22:31:25.539Z,99883.25
2022-09-15T22:33:53.647Z,99886.13
2022-09-15T22:36:27.951Z,99900.56
2022-09-15T22:39:03.518Z,99894.63
2022-09-15T22:41:32.351Z,99910.50
2022-09-15T22:43:59.953Z,99912.31
2022-09-15T22:46:27.591Z,99911.63
2022-09-15T22:48:55.285Z,99920.41
2022-09-15T22:51:22.997Z,99899.53
2022-09-15T22:53:53.952Z,99914.91
2022-09-15T22:56:23.221Z,99917.75
2022-09-15T22:58:50.967Z,99923.41
2022-09-15T23:01:20.607Z,99936.00
2022-09-15T23:03:50.881Z,99952.78
2022-09-15T23:06:18.645Z,99951.94
2022-09-15T23:08:50.936Z,99950.41
2022-09-15T23:11:18.740Z,99953.06
2022-09-15T23:13:47.904Z,99955.88
2022-09-15T23:16:15.881Z,99952.59
2022-09-15T23:18:43.835Z,99951.09
2022-09-15T23:21:12.824Z,99961.78
2022-09-15T23:23:43.099Z,99960.06
2022-09-15T23:26:12.829Z,99961.78
2022-09-15T23:28:40.706Z,99955.75
2022-09-15T23:31:11.858Z,99973.31
2022-09-15T23:33:40.202Z,99969.78
2022-09-15T23:36:10.631Z,99977.59
2022-09-15T23:38:39.544Z,99960.06
2022-09-15T23:41:08.093Z,99959.97
2022-09-15T23:43:36.249Z,99957.47
2022-09-15T23:46:04.848Z,99953.84
2022-09-15T23:48:33.795Z,99956.25
2022-09-15T23:51:01.949Z,99934.88
2022-09-15T23:53:29.991Z,99906.56
2022-09-15T23:55:58.136Z,99895.97
2022-09-15T23:58:29.179Z,99878.31
